• Join FlightAware (Why Join?)
  • Login
  • US Flag 
03:33PM EDT


 

Airport Tracker/Info


-or-


 

Live Flight TrackerFlight Track Log ✈ ASQ5685 ✈ 05-Oct-2013 ✈ KATL - KIAD

Flight Track Log - Related Links

Times and Time Zones

All times are in EDT time to prevent confusion due to time zone crossing. See the ASQ5685 flight status page for this flight to view local times or setup timezone preferences in your user account.

Time Position Orientation Groundspeed Altitude Reporting Facility
EDT Latitude Longitude Course Direction KTS MPH feet Rate Location/Type
09:38AM 33.6333 -84.4000 72° East 168 193 2,000  Level Atlanta TRACON
09:39AM 33.6333 -84.3167 90° East 247 284 3,400 1,920 Climbing Atlanta TRACON
09:40AM 33.8642 -84.1575 54° Northeast  Level Estimated
09:40AM 33.6333 -84.2167 90° East 268 308 6,100  Level Atlanta TRACON
09:41AM 33.9399 -84.0671 48° Northeast  Level Estimated
09:41AM 33.6333 -84.1333 90° East 282 325 8,400  Level Atlanta TRACON
09:41AM 33.6503 -84.0811 69° East 292 336 9,400 1,380 Climbing Atlanta Center
09:42AM 34.0155 -83.9765 53° Northeast  Level Estimated
09:42AM 33.7067 -84.0039 49° Northeast 315 362 10,700  Level Atlanta Center
09:43AM 34.0490 -83.8543 72° East  Level FlightAware Approximate
09:43AM 33.7669 -83.9264 47° Northeast 366 421 11,900  Level Atlanta Center
09:44AM 33.8336 -83.8386 48° Northeast 366 421 13,200 1,200 Climbing Atlanta Center
09:45AM 33.9025 -83.7508 47° Northeast 361 415 14,400 1,200 Climbing Atlanta Center
09:46AM 33.9731 -83.6456 51° Northeast 361 415 15,600 1,020 Climbing Atlanta Center
09:47AM 34.0353 -83.5425 54° Northeast 367 422 16,500 840 Climbing Atlanta Center
09:48AM 34.0997 -83.4392 53° Northeast 382 440 17,300 660 Climbing Atlanta Center
09:49AM 34.1678 -83.3358 51° Northeast 387 445 17,900 660 Climbing Atlanta Center
09:50AM 34.2319 -83.2297 54° Northeast 387 445 18,700 780 Climbing Atlanta Center
09:51AM 34.2981 -83.1236 53° Northeast 393 452 19,500 780 Climbing Atlanta Center
09:52AM 34.3619 -83.0172 54° Northeast 388 447 20,300 780 Climbing Atlanta Center
09:53AM 34.4297 -82.9131 52° Northeast 388 447 21,100 720 Climbing Atlanta Center
09:54AM 34.4956 -82.8039 54° Northeast 388 447 21,800 600 Climbing Atlanta Center
09:55AM 34.5592 -82.6944 55° Northeast 398 458 22,400 540 Climbing Atlanta Center
09:56AM 34.6164 -82.5950 55° Northeast 398 458 22,900 480 Climbing Atlanta Center
09:57AM 34.6922 -82.4903 49° Northeast 398 458 23,400 480 Climbing Atlanta Center
09:58AM 34.7619 -82.3803 52° Northeast 398 458 23,900 480 Climbing Atlanta Center
09:59AM 34.8311 -82.2625 54° Northeast 410 472 24,400 480 Climbing Atlanta Center
10:00AM 34.9006 -82.1519 53° Northeast 415 478 24,900 540 Climbing Atlanta Center
10:01AM 34.9778 -82.0261 53° Northeast 420 483 25,500 540 Climbing Atlanta Center
10:02AM 35.0467 -81.9103 54° Northeast 420 483 26,000 480 Climbing Atlanta Center
10:03AM 35.1092 -81.7892 58° Northeast 414 476 26,500 480 Climbing Atlanta Center
10:04AM 35.1739 -81.6706 56° Northeast 414 476 27,000 240 Climbing Atlanta Center
10:05AM 35.2381 -81.5442 58° Northeast 429 494 27,000  Level Atlanta Center
10:06AM 35.3022 -81.4175 58° Northeast 436 502 27,000  Level Atlanta Center
10:07AM 35.3683 -81.2906 57° Northeast 443 510 27,000  Level Atlanta Center
10:08AM 35.4342 -81.1583 59° Northeast 443 510 27,000  Level Atlanta Center
10:09AM 35.5061 -81.0258 56° Northeast 457 526 27,000  Level Atlanta Center
10:10AM 35.5736 -80.8956 57° Northeast 457 526 27,000  Level Atlanta Center
10:11AM 35.6411 -80.7653 57° Northeast 457 526 27,000  Level Atlanta Center
10:14AM 35.7756 -80.5050 57° Northeast 441 507 27,000  Level Washington Center
10:14AM 35.8436 -80.3708 58° Northeast 441 507 27,000  Level Washington Center
10:16AM 35.9092 -80.2414 58° Northeast 441 507 27,000  Level Washington Center
10:17AM 35.9814 -80.0969 58° Northeast 441 507 27,000  Level Washington Center
10:18AM 36.0508 -79.9722 55° Northeast 435 501 27,000  Level Washington Center
10:19AM 36.1222 -79.8478 55° Northeast 440 506 27,000 -420 Level Washington Center
10:20AM 36.1936 -79.7153 56° Northeast 458 527 26,200 -960 Descending Washington Center
10:20AM 36.2600 -79.5975 55° Northeast 464 534 25,200 -660 Descending Washington Center
10:22AM 36.3419 -79.4547 55° Northeast 457 526 25,000 -120 Descending Washington Center
10:23AM 36.4064 -79.3367 56° Northeast 457 526 25,000  Level Washington Center
10:24AM 36.4769 -79.2108 55° Northeast 452 520 25,000  Level Washington Center
10:24AM 36.5583 -79.0725 54° Northeast 452 520 25,000  Level Washington Center
10:25AM 36.6286 -78.9461 55° Northeast 452 520 25,000  Level Washington Center
10:27AM 36.6989 -78.8144 56° Northeast 452 520 25,000  Level Washington Center
10:28AM 36.7692 -78.6853 56° Northeast 452 520 25,000  Level Washington Center
10:28AM 36.8328 -78.5683 56° Northeast 446 513 25,000  Level Washington Center
10:30AM 36.9086 -78.4492 51° Northeast 446 513 25,000  Level Washington Center
10:31AM 37.0047 -78.3539 38° Northeast 435 501 25,000  Level Washington Center
10:32AM 37.1136 -78.2458 38° Northeast 440 506 25,000  Level Washington Center
10:33AM 37.1881 -78.1728 38° Northeast 440 506 25,000 -180 Level Washington Center
10:33AM 37.2906 -78.0692 39° Northeast 434 499 24,700 -780 Descending Washington Center
10:35AM 37.3906 -77.9681 39° Northeast 434 499 23,500 -1,200 Descending Washington Center
10:36AM 37.4883 -77.8689 39° Northeast 441 507 22,300 -780 Descending Washington Center
10:37AM 37.5942 -77.7908 30° Northeast 446 513 22,000 -1,140 Descending Washington Center
10:38AM 37.7039 -77.7258 25° Northeast 435 501 20,100 -2,160 Descending Washington Center
10:38AM 37.8156 -77.6606 25° Northeast 430 495 17,800 -2,280 Descending Washington Center
10:39AM 37.9208 -77.6003 24° Northeast 425 489 15,700 -2,160 Descending Washington Center
10:41AM 38.0197 -77.5422 25° Northeast 404 465 13,500 -2,340 Descending Washington Center
10:42AM 38.1125 -77.4867 25° Northeast 364 419 11,000 -1,800 Descending Washington Center
10:42AM 38.1925 -77.4411 24° Northeast 329 379 10,000 -600 Descending Washington Center
10:44AM 38.2658 -77.4033 22° Northeast 297 342 9,900 -1,140 Descending Washington Center
10:45AM 38.3833 -77.4500 343° North 278 320 7,100 -1,680 Descending Potomac TRACON
10:46AM 38.4667 -77.4500 360° North 275 316 5,600 -1,500 Descending Potomac TRACON
10:47AM 38.5500 -77.4500 360° North 271 312 4,200 -900 Descending Potomac TRACON
10:48AM 38.6167 -77.4333 11° North 260 299 4,000 -120 Descending Potomac TRACON
10:49AM 38.6833 -77.4333 360° North 265 305 4,000 -120 Level Potomac TRACON
10:50AM 38.7500 -77.4333 360° North 217 250 3,800 -720 Descending Potomac TRACON
10:51AM 38.8000 -77.4333 360° North 188 216 2,700 -1,020 Descending Potomac TRACON
10:52AM 38.8500 -77.4333 360° North 177 204 1,800 -900 Descending Potomac TRACON
10:53AM 38.9000 -77.4333 360° North 157 181 1,000 -900 Descending Potomac TRACON
10:55AM 38.9474 -77.4599 North  Level Estimated
11:02AM 38.9474 -77.4599 191° South  Level Estimated